Terminal Aerodrome Forecast
Issued by NWS Omaha/Valley, NE

Home | Current Version | Previous Version | Graphics & Text | Print | Product List | Glossary On
Versions: 1 2 3 4 5 6 7 8 9 10 11 12 13 14
000
FTUS43 KOAX 221720
TAFOFK
TAF
KOFK 221720Z 2218/2318 13012G19KT P6SM BKN120
     FM222100 15013G22KT P6SM SCT120
     FM230000 15013KT P6SM FEW100 BKN250
     FM230500 14016G24KT P6SM SCT080 BKN150 WS015/17045KT PROB30
      2308/2312 6SM -SHRA BKN080
     FM231400 15022G32KT P6SM SCT040 BKN120=

USA.gov is the U.S. government's official web portal to all federal, state and local government web resources and services.